Latest Weather Observations for Christmas Island

IDW60801

Issued at 12:23 pm WST Sunday 17 February 2019 (issued every 10 minutes, with the page automatically refreshed every 10 minutes)

About weather observations | Map of weather stations | Latest weather observations for WA | Other Formats
Station Details ID: 200790 Name: CHRISTMAS ISLAND AERO Lat: -10.45 Lon: 105.69 Height: 261.0 m
Data from the previous 72 hours. | See also: Recent months at Christmas Island
Date/Time
WST
Temp
°C
App
Temp
°C
Dew
Point
°C
Rel
Hum
%
Delta-T
°C
Wind Press
QNH
hPa
Press
MSL
hPa
Rain since
9am
mm
Dir  Spd
km/h
Gust
km/h
Spd
kts
Gust
kts
17/12:16pm 27.3 32.4 24.6 85 1.9 NNE 6 7 3 4 1015.9 - 0.6
17/12:12pm 26.8 30.5 22.2 76 3.1 NNE 6 7 3 4 1016.0 1014.3 0.6
17/12:01pm 26.6 31.5 23.7 84 2.0 ENE 4 9 2 5 1016.0 1014.3 0.6
17/12:00pm 26.7 31.5 24.2 86 1.7 ENE 6 9 3 5 1016.1 1014.4 0.4
17/11:43am 26.9 30.9 23.8 83 2.1 ENE 9 13 5 7 1016.2 - 0.0
17/11:42am 26.9 30.9 23.8 83 2.1 ENE 9 13 5 7 1016.2 - 0.0
17/11:30am 26.8 30.4 23.7 83 2.1 E 11 17 6 9 1016.3 - 0.0
17/11:23am 26.4 29.7 23.9 86 1.7 E 13 17 7 9 1016.3 1014.7 0.0
17/11:22am 26.5 30.1 24.3 88 1.5 E 13 17 7 9 1016.4 - 0.0
17/11:21am 26.5 30.1 24.3 88 1.5 E 13 17 7 9 1016.4 - 0.0
17/11:16am 26.6 30.2 23.7 84 2.0 ESE 11 19 6 10 1016.4 - 0.0
17/11:15am 26.6 30.2 23.7 84 2.0 ESE 11 19 6 10 1016.4 - 0.0
17/11:00am 26.9 30.0 23.6 82 2.3 E 13 17 7 9 1016.3 1014.7 0.0
17/10:56am 27.3 30.9 24.4 84 2.0 E 13 19 7 10 1016.4 1014.8 0.0
17/10:30am - - - - - SSW 6 9 3 5 1016.1 - 0.0
17/10:00am - - - - - SE 13 20 7 11 1016.2 1014.5 0.0
17/09:50am - - - - - ESE 11 17 6 9 1015.9 - 0.0
17/09:49am - - - - - ESE 11 17 6 9 1015.9 - 0.0
17/09:41am - - - - - E 13 17 7 9 1015.8 - 0.0
17/09:40am - - - - - E 13 17 7 9 1015.8 - 0.0
17/09:30am - - - - - ESE 13 19 7 10 1015.8 - 0.0
17/09:02am 27.3 31.0 23.3 79 2.8 ESE 9 17 5 9 1015.5 - 0.0
17/09:00am 27.3 31.3 23.7 81 2.5 SE 9 15 5 8 1015.5 1013.9 0.0
17/08:36am 26.6 30.4 23.5 83 2.1 SE 9 13 5 7 1015.1 - 0.0
17/08:31am 26.9 31.3 23.8 83 2.1 SE 7 13 4 7 1015.0 1013.4 0.0
17/08:30am 26.9 31.3 23.8 83 2.1 SE 7 13 4 7 1015.0 1013.4 0.0
17/08:29am 26.9 31.3 23.8 83 2.1 SE 7 13 4 7 1015.0 - 0.0
17/08:00am 26.7 29.6 22.5 78 2.9 ESE 11 17 6 9 1014.7 1013.1 0.0
17/07:30am 25.3 29.0 22.6 85 1.8 ESE 7 9 4 5 1014.6 - 0.0
17/07:00am 25.0 28.2 22.3 85 1.8 ESE 9 13 5 7 1014.5 1012.9 0.0
17/06:30am 24.8 28.0 22.3 86 1.7 ESE 9 13 5 7 1014.4 - 0.0
17/06:00am 25.1 28.0 22.4 85 1.8 ESE 11 15 6 8 1014.3 1012.7 0.0
17/05:30am 24.9 28.0 22.2 85 1.8 E 9 15 5 8 1014.2 - 0.0
17/05:00am 25.3 28.0 22.2 83 2.1 ESE 11 15 6 8 1014.2 1012.6 0.0
17/04:30am 25.2 28.0 22.3 84 2.0 ESE 11 17 6 9 1014.0 1012.4 0.0
17/04:00am 25.5 28.1 22.0 81 2.4 E 11 17 6 9 1014.0 1012.4 0.0
17/03:30am 25.6 27.7 22.5 83 2.1 E 15 20 8 11 1014.1 1012.5 0.0
17/03:00am 25.5 27.9 22.2 82 2.2 ESE 13 20 7 11 1014.2 1012.6 0.0
17/02:30am 25.4 27.8 22.3 83 2.1 ESE 13 19 7 10 1014.5 - 0.0
17/02:00am 25.6 27.2 22.1 81 2.4 ESE 17 22 9 12 1014.7 1013.1 0.0
17/01:30am 25.5 27.6 22.4 83 2.1 ESE 15 20 8 11 1014.8 - 0.0
17/01:00am 25.6 27.7 22.5 83 2.1 ESE 15 22 8 12 1015.0 1013.4 0.0
17/12:30am 25.6 27.6 22.3 82 2.2 SE 15 22 8 12 1015.3 - 0.0
17/12:00am 25.5 27.9 22.2 82 2.2 ESE 13 19 7 10 1015.6 1014.0 0.0
 
Date/Time
WST
Temp
°C
App
Temp
°C
Dew
Point
°C
Rel
Hum
%
Delta-T
°C
Wind Press
QNH
hPa
Press
MSL
hPa
Rain since
9am
mm
Dir  Spd
km/h
Gust
km/h
Spd
kts
Gust
kts
16/11:30pm 25.6 27.9 22.1 81 2.4 SE 13 20 7 11 1015.6 - 0.0
16/11:00pm 25.7 27.6 22.0 80 2.5 SE 15 20 8 11 1015.5 1013.9 0.0
16/10:30pm 25.7 27.3 22.2 81 2.4 SE 17 24 9 13 1015.3 - 0.0
16/10:00pm 25.6 27.5 22.1 81 2.4 SE 15 22 8 12 1015.2 1013.6 0.0
16/09:30pm 25.6 27.3 21.7 79 2.6 SE 15 19 8 10 1014.9 - 0.0
16/09:00pm 25.7 27.2 22.0 80 2.5 SE 17 20 9 11 1014.8 1013.2 0.0
16/08:30pm 25.8 28.1 22.1 80 2.5 SE 13 19 7 10 1014.3 - 0.0
16/08:00pm 25.8 28.6 22.3 81 2.4 SE 11 19 6 10 1013.8 1012.2 0.0
16/07:30pm 25.8 27.9 21.7 78 2.8 SE 13 22 7 12 1013.3 - 0.0
16/07:00pm 26.2 28.4 21.8 77 3.0 SE 13 19 7 10 1013.1 1011.5 0.0
16/06:30pm 26.6 29.3 22.2 77 3.0 SE 11 20 6 11 1012.9 - 0.0
16/06:00pm 27.1 29.1 21.6 72 3.7 SE 13 20 7 11 1012.6 1010.9 0.0
16/05:30pm 27.9 29.8 22.1 70 3.9 ESE 15 22 8 12 1012.5 - 0.0
16/05:00pm 28.3 30.3 22.3 70 4.1 ESE 15 24 8 13 1012.5 1010.8 0.0
16/04:30pm 28.1 29.4 21.6 68 4.4 ESE 17 24 9 13 1012.9 - 0.0
16/04:00pm 27.6 29.4 22.5 74 3.5 ESE 17 24 9 13 1013.0 1011.4 0.0
16/03:30pm 27.6 29.2 22.1 72 3.7 ESE 17 20 9 11 1013.2 - 0.0
16/03:00pm 28.2 30.6 22.9 73 3.6 E 15 22 8 12 1013.5 1011.8 0.0
16/02:30pm 28.4 30.4 22.2 69 4.2 E 15 24 8 13 1013.6 - 0.0
16/02:00pm 28.2 29.8 22.2 70 4.1 E 17 22 9 12 1014.0 1012.3 0.0
16/01:30pm 28.9 31.3 22.9 70 4.1 E 15 20 8 11 1014.4 - 0.0
16/01:00pm 28.0 30.0 22.2 70 3.9 E 15 22 8 12 1014.8 1013.2 0.0
16/12:30pm 28.1 30.3 22.6 72 3.8 E 15 24 8 13 1015.1 - 0.0
16/12:00pm 28.5 30.8 22.7 71 4.0 E 15 24 8 13 1015.3 1013.7 0.0
16/11:30am 28.0 29.8 22.5 72 3.8 E 17 22 9 12 1015.5 - 0.0
16/11:21am 28.8 30.6 23.2 71 3.9 E 19 24 10 13 1015.6 - 0.0
16/11:20am 28.8 30.6 23.2 71 3.9 E 19 24 10 13 1015.6 - 0.0
16/11:00am 27.9 29.7 22.6 73 3.6 E 17 24 9 13 1015.8 1014.2 0.0
16/10:54am 27.9 30.7 23.7 78 2.9 ENE 15 22 8 12 - - 0.0
16/10:44am 27.3 29.9 23.3 79 2.8 E 15 20 8 11 1015.9 - 0.0
16/10:43am 27.3 29.9 23.3 79 2.8 E 15 20 8 11 1015.9 - 0.0
16/10:30am 27.5 29.4 22.7 75 3.3 E 17 22 9 12 1016.1 - 0.0
16/10:00am 27.8 29.5 22.3 72 3.7 E 17 22 9 12 1016.1 1014.4 -
16/09:30am 27.2 28.5 22.4 75 3.3 E 19 24 10 13 1016.1 - -
16/09:21am 27.3 29.3 22.9 77 3.0 E 17 24 9 13 1015.9 - -
16/09:20am 27.3 29.3 22.9 77 3.0 E 17 24 9 13 1015.9 - 0.4
16/09:00am 27.0 30.1 23.5 81 2.4 ESE 13 19 7 10 1016.0 1014.3 -
16/08:55am 26.3 29.1 23.0 82 2.3 E 13 20 7 11 1015.9 - -
16/08:54am 26.3 29.1 23.0 82 2.3 E 13 20 7 11 1015.9 - 0.4
16/08:48am 26.6 29.1 23.1 81 2.4 E 15 19 8 10 1015.8 - -
16/08:47am 26.6 29.5 23.1 81 2.4 E 13 19 7 10 1015.8 - 0.4
16/08:30am 26.5 28.7 22.6 79 2.7 E 15 22 8 12 1015.6 1014.0 -
16/08:29am 26.5 28.5 22.3 78 2.9 E 15 20 8 11 1015.6 - -
16/08:28am 26.5 28.5 22.3 78 2.9 E 15 20 8 11 1015.6 - 0.4
16/08:26am 26.7 29.4 22.8 79 2.7 ESE 13 19 7 10 1015.6 - -
16/08:25am 26.7 29.4 22.8 79 2.7 ESE 13 19 7 10 1015.6 - 0.4
16/08:15am 26.5 29.6 23.6 84 2.0 ESE 13 22 7 12 1015.5 - 0.4
16/08:13am 26.4 29.5 23.5 84 2.0 ESE 13 22 7 12 1015.5 - -
16/08:12am 26.4 29.5 23.5 84 2.0 ESE 13 22 7 12 1015.5 - 0.4
16/08:11am 26.3 29.3 23.4 84 2.0 ESE 13 22 7 12 1015.4 1013.8 -
16/08:09am 26.0 28.7 22.9 83 2.1 ESE 13 22 7 12 1015.4 - -
16/08:08am 26.0 28.7 22.9 83 2.1 ESE 13 22 7 12 1015.4 - 0.4
16/08:00am 26.1 29.0 23.2 84 2.0 ESE 13 19 7 10 1015.3 1013.7 -
16/07:55am 26.0 28.9 23.1 84 2.0 ESE 13 19 7 10 1015.3 - 0.4
16/07:54am 26.0 28.9 23.1 84 2.0 ESE 13 19 7 10 1015.3 - -
16/07:53am 26.0 28.9 23.1 84 2.0 ESE 13 19 7 10 1015.3 - 0.4
16/07:30am 25.2 28.7 22.9 87 1.6 ESE 9 15 5 8 1015.2 - -
16/07:00am 24.8 27.6 22.3 86 1.7 ESE 11 15 6 8 1015.2 1013.6 -
16/06:30am 25.0 27.9 22.5 86 1.7 E 11 17 6 9 1015.2 - -
16/06:23am 24.9 27.9 22.6 87 1.6 E 11 17 6 9 1015.1 - -
16/06:00am 24.9 28.1 23.0 89 1.3 E 11 15 6 8 1014.9 1013.3 -
16/05:30am 24.3 28.0 22.6 90 1.2 ESE 7 11 4 6 1014.6 1013.0 -
16/05:12am 24.6 28.1 22.8 90 1.2 ESE 9 13 5 7 1014.7 - -
16/05:11am 24.6 28.1 22.8 90 1.2 ESE 9 13 5 7 1014.7 - 0.4
16/05:10am 24.6 28.1 22.8 90 1.2 ESE 9 13 5 7 1014.7 - -
16/05:00am 24.7 27.8 22.9 90 1.2 ESE 11 13 6 7 1014.7 1013.1 -
16/04:57am 24.7 28.3 23.1 91 1.1 ESE 9 13 5 7 1014.7 - -
16/04:56am 24.7 28.3 23.1 91 1.1 ESE 9 13 5 7 1014.7 - 0.4
16/04:30am 24.4 28.0 23.0 92 1.0 ESE 9 13 5 7 1014.7 - -
16/04:00am 24.4 27.9 22.8 91 1.1 SE 9 13 5 7 1014.7 1013.1 -
16/03:30am 24.2 28.3 23.0 93 0.8 SE 6 9 3 5 1014.8 - -
16/03:00am 24.3 28.4 22.9 92 1.0 ESE 6 9 3 5 1014.9 1013.3 -
16/02:30am 24.4 28.9 22.3 88 1.4 SE 2 6 1 3 1015.3 - -
16/02:00am 24.9 28.1 22.4 86 1.7 SE 9 13 5 7 1015.6 1014.0 -
16/01:55am 25.0 28.3 22.5 86 1.7 SE 9 13 5 7 1015.7 - -
16/01:54am 25.0 28.3 22.5 86 1.7 SE 9 13 5 7 1015.7 - 0.2
16/01:30am 25.4 28.9 22.9 86 1.7 ESE 9 13 5 7 1015.8 - -
16/01:21am 25.3 28.9 23.0 87 1.6 ESE 9 17 5 9 1015.8 - -
16/01:20am 25.3 28.9 23.0 87 1.6 ESE 9 17 5 9 1015.8 - 0.2
16/01:00am 24.9 28.2 22.6 87 1.6 SE 9 15 5 8 1015.8 1014.2 -
16/12:30am 25.0 27.9 22.5 86 1.7 SE 11 15 6 8 1016.2 1014.6 -
16/12:00am 25.0 27.9 22.5 86 1.7 SE 11 15 6 8 1016.5 1014.9 -
 
Date/Time
WST
Temp
°C
App
Temp
°C
Dew
Point
°C
Rel
Hum
%
Delta-T
°C
Wind Press
QNH
hPa
Press
MSL
hPa
Rain since
9am
mm
Dir  Spd
km/h
Gust
km/h
Spd
kts
Gust
kts
15/11:30pm 25.1 27.8 22.2 84 2.0 SE 11 17 6 9 1016.3 1014.7 -
15/11:00pm 25.3 27.8 22.4 84 2.0 SE 13 17 7 9 1016.4 1014.7 -
15/10:30pm 25.2 27.4 21.9 82 2.2 SE 13 17 7 9 1016.3 - -
15/10:00pm 25.4 27.7 22.1 82 2.2 SE 13 19 7 10 1015.8 1014.2 -
15/09:30pm 25.5 27.5 22.2 82 2.2 SE 15 20 8 11 1015.5 - -
15/09:00pm 25.3 28.5 22.4 84 2.0 SE 9 15 5 8 1015.0 1013.4 -
15/08:30pm 25.3 28.0 22.2 83 2.1 SE 11 15 6 8 1014.8 - -
15/08:00pm 25.4 28.1 22.1 82 2.2 SE 11 17 6 9 1014.4 1012.8 -
15/07:30pm 25.5 28.1 22.0 81 2.4 SE 11 17 6 9 1013.9 - -
15/07:00pm 26.1 28.7 22.0 78 2.8 SE 11 15 6 8 1013.7 1012.1 -
15/06:30pm 26.3 28.3 21.5 75 3.2 SE 13 20 7 11 1013.4 - -
15/06:00pm 26.7 28.8 21.7 74 3.4 SE 13 19 7 10 1013.2 1011.6 -
15/05:30pm 27.6 29.3 22.3 73 3.6 ESE 17 26 9 14 1013.1 - -
15/05:00pm 27.3 28.8 22.0 73 3.6 SE 17 24 9 13 1013.0 1011.4 -
15/04:30pm 26.9 27.7 21.4 72 3.7 ESE 19 24 10 13 1013.3 - -
15/04:00pm 27.6 29.0 21.9 71 3.9 E 17 22 9 12 1013.5 1011.9 0.0
15/03:30pm 27.7 28.5 21.7 70 4.1 ESE 20 26 11 14 1013.6 - -
15/03:00pm 27.5 28.2 21.5 70 4.0 ESE 20 28 11 15 1013.8 1012.2 -
15/02:30pm 27.6 28.0 20.9 67 4.5 ESE 20 30 11 16 1014.0 - -
15/02:00pm 27.5 28.0 21.1 68 4.3 ESE 20 30 11 16 1014.4 1012.8 -
15/01:30pm 27.9 28.1 21.4 67 4.4 ESE 22 28 12 15 1014.8 - -
15/01:00pm 28.0 27.9 21.5 67 4.4 ESE 24 30 13 16 1015.1 1013.5 -
15/12:30pm 27.7 28.1 21.0 67 4.5 ESE 20 30 11 16 1015.5 - -
15/12:00pm 27.5 28.1 21.3 69 4.2 SE 20 30 11 16 1016.1 1014.4 -
15/11:30am - - - - - - - - - - - - -
15/11:00am - - - - - - - - - - - - -
15/10:30am - - - - - - - - - - - - -
15/10:00am 27.2 28.4 21.5 71 3.8 SE 17 24 9 13 1016.8 1015.2 -
15/09:30am - - - - - - - - - - - - -
15/09:24am 27.1 - 21.6 72 3.7 - - - - - 1016.6 - -
15/02:30am 24.5 27.3 21.6 84 1.9 SE 9 15 5 8 1015.0 1013.4 0.0
15/02:00am 24.6 27.0 21.5 83 2.1 SE 11 15 6 8 1015.4 1013.8 0.0
15/01:30am 24.9 27.3 21.6 82 2.2 SE 11 17 6 9 1015.6 1014.0 0.0
15/01:00am 24.9 27.5 22.0 84 2.0 SE 11 17 6 9 1016.1 1014.4 0.0
15/12:30am 24.8 27.3 21.7 83 2.1 SE 11 17 6 9 1016.3 1014.7 0.0
15/12:00am 25.2 27.5 22.1 83 2.1 SE 13 17 7 9 1016.6 1015.0 0.0
 
Date/Time
WST
Temp
°C
App
Temp
°C
Dew
Point
°C
Rel
Hum
%
Delta-T
°C
Wind Press
QNH
hPa
Press
MSL
hPa
Rain since
9am
mm
Dir  Spd
km/h
Gust
km/h
Spd
kts
Gust
kts
14/11:30pm 24.9 27.3 21.6 82 2.2 SE 11 17 6 9 1016.5 1014.9 0.0
14/11:00pm 24.9 27.1 21.2 80 2.5 SE 11 17 6 9 1016.4 1014.8 0.0
14/10:30pm 25.0 26.9 21.3 80 2.5 SE 13 20 7 11 1016.3 1014.7 0.0
14/10:00pm 25.0 27.0 21.5 81 2.3 SE 13 17 7 9 1016.1 1014.4 0.0
14/09:30pm 25.1 26.9 21.2 79 2.6 SE 13 19 7 10 1015.7 1014.1 0.0
14/09:00pm 25.3 27.1 21.8 81 2.4 SE 15 19 8 10 1015.6 1014.0 0.0
14/08:30pm 25.4 27.1 21.7 80 2.5 SE 15 22 8 12 1015.1 1013.5 0.0
14/08:00pm 25.1 27.0 21.4 80 2.5 SE 13 17 7 9 1014.6 1013.0 0.0
14/07:30pm 25.5 27.4 21.4 78 2.7 SE 13 19 7 10 1014.2 1012.6 0.0
14/07:00pm 25.7 27.6 21.4 77 2.9 SE 13 19 7 10 1013.7 1012.1 0.0
14/06:30pm 26.3 27.8 21.3 74 3.3 SE 15 20 8 11 1013.3 1011.7 0.0
14/06:00pm 26.5 28.0 21.3 73 3.5 SE 15 20 8 11 1013.0 1011.4 0.0
14/05:30pm 26.9 28.9 21.6 72 3.6 SE 13 17 7 9 1012.8 1011.2 0.0
14/05:00pm 27.4 29.7 22.1 73 3.6 SE 13 20 7 11 1012.7 1011.0 0.0
14/04:30pm 26.8 27.9 21.3 72 3.7 SE 17 24 9 13 1012.6 1010.9 0.0
14/04:00pm 27.9 28.6 21.2 67 4.5 ESE 19 26 10 14 1012.7 1011.0 0.0
14/03:30pm 27.7 29.3 22.2 72 3.7 ESE 17 24 9 13 1012.9 1011.3 0.0
14/03:00pm 27.6 29.5 22.1 72 3.7 ESE 15 22 8 12 1013.1 1011.5 0.0
14/02:30pm 27.8 29.2 21.8 70 4.1 SE 17 26 9 14 1013.6 1012.0 0.0
14/02:00pm 27.4 28.7 21.7 71 3.8 ESE 17 22 9 12 1014.0 1012.4 0.0
14/01:30pm 27.5 29.1 21.5 70 4.0 ESE 15 20 8 11 1014.5 1012.9 0.0

Other Formats:

Comma delimited format used in spreadsheet applications
http://www.bom.gov.au/fwo/IDW60801/IDW60801.96995.axf

JavaScript Object Notation format (JSON) in row-major order
http://www.bom.gov.au/fwo/IDW60801/IDW60801.96995.json